createdAt,value
2023-05-05T00:01:06.278Z,7.90
2023-05-05T00:06:08.227Z,9.50
2023-05-05T00:11:09.900Z,10.90
2023-05-05T00:16:11.419Z,8.50
2023-05-05T00:21:13.285Z,10.20
2023-05-05T00:26:14.776Z,8.10
2023-05-05T00:31:16.948Z,9.50
2023-05-05T00:36:18.592Z,9.40
2023-05-05T00:41:20.383Z,9.00
2023-05-05T00:46:28.024Z,9.60
2023-05-05T00:51:29.869Z,9.30
2023-05-05T00:56:31.899Z,7.70
2023-05-05T01:01:33.743Z,11.70
2023-05-05T01:06:43.958Z,9.40
2023-05-05T01:11:55.462Z,10.40
2023-05-05T01:17:28.762Z,10.80
2023-05-05T01:22:41.684Z,9.50
2023-05-05T01:27:55.832Z,9.80
2023-05-05T01:33:10.726Z,11.00
2023-05-05T01:38:17.202Z,10.30
2023-05-05T01:43:21.260Z,10.70
2023-05-05T01:48:24.632Z,11.10
2023-05-05T01:53:27.695Z,10.20
2023-05-05T01:58:32.557Z,10.90
2023-05-05T02:03:37.782Z,11.30
2023-05-05T02:08:41.099Z,14.70
2023-05-05T02:13:44.364Z,12.60
2023-05-05T02:18:47.417Z,10.70
2023-05-05T02:23:51.929Z,10.00
2023-05-05T02:29:18.818Z,10.20
2023-05-05T02:34:26.702Z,10.50
2023-05-05T02:39:35.863Z,12.60
2023-05-05T02:44:41.425Z,11.10
2023-05-05T02:49:43.284Z,11.60
2023-05-05T02:54:44.815Z,11.80
2023-05-05T03:00:13.856Z,11.40
2023-05-05T03:05:24.655Z,12.50
2023-05-05T03:10:30.147Z,13.30
2023-05-05T03:15:37.714Z,16.50
2023-05-05T03:20:39.951Z,13.00
2023-05-05T03:25:45.897Z,11.70
2023-05-05T03:30:48.217Z,14.80
2023-05-05T03:35:49.695Z,14.40
2023-05-05T03:40:51.172Z,14.20
2023-05-05T03:45:52.787Z,24.60
2023-05-05T03:50:54.351Z,16.30
2023-05-05T03:55:55.860Z,20.40
2023-05-05T04:00:57.574Z,16.30
2023-05-05T04:05:59.137Z,17.50
2023-05-05T04:11:02.575Z,16.90
2023-05-05T04:16:04.860Z,18.70
2023-05-05T04:21:06.434Z,18.10
2023-05-05T04:26:08.026Z,17.30
2023-05-05T04:31:10.833Z,15.60
2023-05-05T04:36:12.464Z,16.90
2023-05-05T04:41:14.019Z,12.80
2023-05-05T04:46:15.986Z,16.10
2023-05-05T04:51:17.540Z,24.80
2023-05-05T04:56:19.061Z,11.80
2023-05-05T05:01:20.800Z,17.60
2023-05-05T05:06:22.418Z,13.40
2023-05-05T05:11:23.940Z,14.70
2023-05-05T05:16:25.683Z,14.00
2023-05-05T05:21:27.715Z,14.70
2023-05-05T05:26:29.272Z,14.10
2023-05-05T05:31:31.525Z,15.00
2023-05-05T05:36:33.375Z,12.50
2023-05-05T05:41:34.885Z,15.10
2023-05-05T05:46:36.427Z,12.20
2023-05-05T05:51:37.962Z,14.70
2023-05-05T05:56:39.504Z,15.40
2023-05-05T06:01:41.404Z,11.90
2023-05-05T06:06:42.912Z,16.20
2023-05-05T06:11:44.489Z,13.70
2023-05-05T06:16:45.978Z,19.40
2023-05-05T06:21:48.951Z,13.30
2023-05-05T06:26:50.587Z,15.60
2023-05-05T06:31:52.206Z,11.60
2023-05-05T06:36:53.772Z,15.30
2023-05-05T06:41:55.596Z,14.60
2023-05-05T06:46:57.278Z,11.40
2023-05-05T06:51:58.835Z,15.60
2023-05-05T06:57:00.305Z,10.40
2023-05-05T07:02:01.898Z,11.30
2023-05-05T07:07:03.429Z,7.00
2023-05-05T07:12:05.141Z,11.30
2023-05-05T07:17:06.695Z,9.40
2023-05-05T07:22:08.256Z,12.20
2023-05-05T07:27:09.832Z,20.40
2023-05-05T07:32:21.789Z,9.30
2023-05-05T07:37:26.691Z,8.70
2023-05-05T07:42:28.245Z,6.30
2023-05-05T07:47:30.294Z,8.90
2023-05-05T07:52:44.999Z,8.80
2023-05-05T07:57:49.982Z,7.50
2023-05-05T08:02:51.598Z,5.20
2023-05-05T08:07:53.800Z,9.10
2023-05-05T08:12:55.836Z,7.00
2023-05-05T08:17:57.490Z,6.20
2023-05-05T08:22:59.361Z,8.80
2023-05-05T08:28:01.206Z,7.60
2023-05-05T08:33:02.739Z,10.40
2023-05-05T08:38:04.282Z,7.20
2023-05-05T08:43:06.157Z,6.70
2023-05-05T08:48:08.947Z,4.80
2023-05-05T08:53:16.643Z,6.30
2023-05-05T08:58:19.545Z,5.40
2023-05-05T09:03:21.578Z,5.90
2023-05-05T09:08:23.280Z,5.00
2023-05-05T09:13:24.954Z,4.70
2023-05-05T09:18:26.810Z,5.70
2023-05-05T09:23:28.358Z,4.80
2023-05-05T09:28:30.189Z,5.00
2023-05-05T09:33:31.937Z,4.50
2023-05-05T09:38:36.574Z,4.60
2023-05-05T09:43:52.559Z,5.60
2023-05-05T09:48:54.391Z,6.80
2023-05-05T09:53:56.823Z,5.40
2023-05-05T09:59:11.926Z,6.10
2023-05-05T10:04:28.096Z,4.80
2023-05-05T10:09:31.807Z,4.10
2023-05-05T10:14:34.273Z,6.50
2023-05-05T10:19:37.148Z,15.30
2023-05-05T10:24:47.244Z,4.10
2023-05-05T10:29:59.089Z,5.60
2023-05-05T10:35:02.815Z,6.00
2023-05-05T10:40:05.986Z,5.60
2023-05-05T10:45:08.710Z,5.60
2023-05-05T10:50:27.214Z,4.10
2023-05-05T10:55:36.525Z,7.50
2023-05-05T11:00:41.550Z,6.40
2023-05-05T11:06:05.690Z,4.50
2023-05-05T11:11:10.440Z,5.30
2023-05-05T11:16:45.877Z,5.30
2023-05-05T11:22:00.812Z,4.40
2023-05-05T11:27:03.332Z,7.20
2023-05-05T11:32:11.747Z,4.10
2023-05-05T11:37:13.505Z,5.10
2023-05-05T11:42:25.739Z,5.30
2023-05-05T11:47:29.221Z,5.70
2023-05-05T11:52:30.919Z,5.90
2023-05-05T11:57:32.493Z,6.20
2023-05-05T12:02:35.110Z,3.90
2023-05-05T12:07:37.003Z,6.20
2023-05-05T12:12:40.563Z,6.80
2023-05-05T12:17:45.194Z,6.40
2023-05-05T12:22:46.986Z,5.10
2023-05-05T12:27:53.171Z,6.20
2023-05-05T12:33:08.340Z,4.90
2023-05-05T12:38:10.471Z,3.70
2023-05-05T12:43:25.054Z,4.40
2023-05-05T12:48:26.675Z,4.50
2023-05-05T12:53:28.248Z,4.90
2023-05-05T12:58:32.775Z,7.30
2023-05-05T13:03:34.400Z,6.00
2023-05-05T13:08:43.572Z,3.40
2023-05-05T13:13:45.093Z,8.90
2023-05-05T13:18:50.652Z,4.60
2023-05-05T13:23:52.129Z,4.10
2023-05-05T13:28:54.089Z,4.90
2023-05-05T13:33:55.779Z,7.00
2023-05-05T13:38:57.407Z,4.50
2023-05-05T13:43:58.886Z,4.10
2023-05-05T13:49:00.381Z,3.20
2023-05-05T13:54:02.145Z,5.10
2023-05-05T13:59:03.743Z,4.50
2023-05-05T14:04:06.056Z,4.80
2023-05-05T14:09:08.189Z,3.90
2023-05-05T14:14:09.721Z,4.50
2023-05-05T14:19:11.221Z,4.90
2023-05-05T14:24:12.790Z,3.30
2023-05-05T14:29:14.304Z,5.30
2023-05-05T14:34:15.862Z,5.50
2023-05-05T14:39:17.479Z,4.50
2023-05-05T14:44:19.007Z,3.00
2023-05-05T14:49:20.572Z,8.30
2023-05-05T14:54:27.942Z,4.10
2023-05-05T14:59:30.829Z,5.70
2023-05-05T15:04:32.379Z,7.60
2023-05-05T15:09:33.958Z,5.50
2023-05-05T15:14:36.787Z,7.50
2023-05-05T15:19:38.361Z,5.70
2023-05-05T15:24:39.998Z,4.20
2023-05-05T15:29:41.548Z,4.10
2023-05-05T15:34:44.879Z,3.90
2023-05-05T15:39:46.404Z,4.20
2023-05-05T15:44:48.018Z,4.30
2023-05-05T15:49:49.611Z,3.70
2023-05-05T15:54:51.259Z,5.50
2023-05-05T15:59:53.571Z,4.60
2023-05-05T16:04:55.262Z,4.10
2023-05-05T16:09:57.140Z,4.80
2023-05-05T16:14:59.086Z,6.40
2023-05-05T16:20:00.756Z,4.70
2023-05-05T16:25:02.372Z,6.90
2023-05-05T16:30:04.576Z,6.70
2023-05-05T16:35:07.763Z,7.20
2023-05-05T16:40:10.665Z,2.60
2023-05-05T16:45:12.249Z,5.50
2023-05-05T16:50:13.828Z,6.30
2023-05-05T16:55:15.542Z,8.20
2023-05-05T17:00:23.631Z,5.00
2023-05-05T17:05:25.391Z,5.50
2023-05-05T17:10:27.511Z,6.40
2023-05-05T17:15:29.119Z,8.70
2023-05-05T17:20:31.157Z,4.60
2023-05-05T17:25:32.702Z,4.10
2023-05-05T17:30:35.067Z,3.10
2023-05-05T17:35:37.717Z,4.00
2023-05-05T17:40:39.223Z,7.70
2023-05-05T17:45:42.291Z,6.00
2023-05-05T17:55:46.056Z,3.70
2023-05-05T18:00:47.927Z,8.30
2023-05-05T18:05:49.428Z,8.10
2023-05-05T18:10:51.017Z,3.90
2023-05-05T18:15:52.681Z,4.90
2023-05-05T18:20:54.262Z,5.70
2023-05-05T18:25:55.825Z,6.80
2023-05-05T18:30:57.439Z,4.40
2023-05-05T18:35:59.031Z,9.30
2023-05-05T18:41:00.506Z,5.80
2023-05-05T18:46:02.575Z,6.00
2023-05-05T18:51:04.965Z,4.20
2023-05-05T18:56:07.167Z,5.70
2023-05-05T19:01:08.688Z,6.50
2023-05-05T19:06:10.266Z,6.10
2023-05-05T19:11:11.875Z,3.70
2023-05-05T19:16:13.520Z,7.00
2023-05-05T19:21:15.098Z,5.20
2023-05-05T19:26:16.625Z,5.40
2023-05-05T19:31:18.231Z,4.50
2023-05-05T19:36:19.868Z,4.90
2023-05-05T19:41:21.508Z,4.20
2023-05-05T19:46:25.593Z,7.00
2023-05-05T19:51:27.326Z,7.70
2023-05-05T19:56:28.844Z,6.90
2023-05-05T20:01:30.589Z,4.10
2023-05-05T20:06:33.109Z,5.10
2023-05-05T20:11:35.550Z,5.40
2023-05-05T20:16:37.257Z,6.00
2023-05-05T20:21:38.929Z,6.70
2023-05-05T20:26:40.426Z,3.80
2023-05-05T20:31:42.516Z,4.90
2023-05-05T20:36:44.206Z,6.40
2023-05-05T20:41:46.686Z,8.00
2023-05-05T20:46:48.292Z,5.80
2023-05-05T20:51:50.018Z,7.50
2023-05-05T20:56:53.167Z,6.40
2023-05-05T21:01:58.355Z,8.00
2023-05-05T21:06:59.862Z,7.00
2023-05-05T21:12:02.467Z,6.00
2023-05-05T21:17:04.041Z,4.00
2023-05-05T21:22:05.711Z,6.30
2023-05-05T21:27:07.213Z,7.60
2023-05-05T21:32:10.259Z,8.60
2023-05-05T21:37:12.149Z,5.00
2023-05-05T21:42:13.628Z,7.10
2023-05-05T21:47:16.435Z,5.00
2023-05-05T21:52:17.980Z,5.00
2023-05-05T21:57:19.938Z,6.70
2023-05-05T22:02:21.440Z,6.40
2023-05-05T22:07:24.210Z,7.40
2023-05-05T22:12:25.772Z,4.40
2023-05-05T22:17:27.266Z,7.10
2023-05-05T22:22:28.744Z,6.00
2023-05-05T22:27:30.230Z,6.40
2023-05-05T22:32:32.285Z,3.40
2023-05-05T22:37:33.826Z,5.80
2023-05-05T22:42:35.659Z,6.20
2023-05-05T22:47:37.411Z,5.70
2023-05-05T22:52:39.183Z,6.10
2023-05-05T22:57:41.726Z,8.10
2023-05-05T23:02:43.256Z,8.30
2023-05-05T23:07:44.792Z,5.60
2023-05-05T23:12:46.520Z,4.80
2023-05-05T23:17:48.379Z,4.00
2023-05-05T23:22:50.028Z,5.00
2023-05-05T23:27:51.580Z,8.10
2023-05-05T23:32:53.121Z,4.00
2023-05-05T23:37:54.708Z,6.60
2023-05-05T23:47:57.739Z,4.10
2023-05-05T23:52:59.518Z,5.80
2023-05-05T23:58:01.218Z,6.10
